KACV

California Redwood Coast-Humboldt County Airport

Arcata/Eureka, California, USA
KACV 192116Z 1921/2018 30003KT P6SM SKC FM200200 VRB03KT 5SM HZ SCT160 FM200700 16003KT P6SM SCT150 FM201700 15005KT P6SM BKN140
Issued Valid From Valid To
Nov-19 @ 21:16 UTC
(50 minutes ago)
Nov-19 @ 21:00 UTC
(an hour ago)
Nov-20 @ 18:00 UTC
(in 20 hours)
Nov-19 @ 21:00 to Nov-20 @ 02:00
KACV 192116Z 1921/2018 30003KT P6SM SKC
Wind Visibility Clouds
300° at 3 knots Greater than 6 miles
  • Clear skies
From Nov-20 @ 02:00 to Nov-20 @ 07:00
FM200200 VRB03KT 5SM HZ SCT160
Wind Visibility Clouds Conditions
Variable at 3 knots 5 miles
  • Scattered at 16,000' AGL
  • Haze
From Nov-20 @ 07:00 to Nov-20 @ 17:00
FM200700 16003KT P6SM SCT150
Wind Visibility Clouds
160° at 3 knots Greater than 6 miles
  • Scattered at 15,000' AGL
From Nov-20 @ 17:00 to Nov-20 @ 18:00
FM201700 15005KT P6SM BKN140
Wind Visibility Clouds
150° at 5 knots Greater than 6 miles
  • Broken at 14,000' AGL
KACV 192116Z 1921/2018 30003KT P6SM SKC FM200200 VRB03KT 5SM HZ SCT160 FM200700 16003KT P6SM SCT150 FM201700 15005KT P6SM BKN140
Issued Nov-19 @ 21:16 UTC
(50 minutes ago)
Valid From Nov-19 @ 21:00 UTC
(an hour ago)
Valid To Nov-20 @ 18:00 UTC
(in 20 hours)
Nov-19 @ 21:00 - Nov-20 @ 02:00
Wind Visibility
300° at 3 knots Greater than 6 miles
Clouds
  • Clear skies
From Nov-20 @ 02:00 - Nov-20 @ 07:00
Wind Visibility
Variable at 3 knots 5 miles
Clouds
  • Scattered at 16,000' AGL
Conditions
  • Haze
From Nov-20 @ 07:00 - Nov-20 @ 17:00
Wind Visibility
160° at 3 knots Greater than 6 miles
Clouds
  • Scattered at 15,000' AGL
From Nov-20 @ 17:00 - Nov-20 @ 18:00
Wind Visibility
150° at 5 knots Greater than 6 miles
Clouds
  • Broken at 14,000' AGL